sensor_id;sensor_type;location;lat;lon;timestamp;pressure;altitude;pressure_sealevel;temperature;humidity
58761;BME280;44529;47.464;19.014;2022-09-09T00:06:30;99897.84;;;18.11;98.57
58761;BME280;44529;47.464;19.014;2022-09-09T00:09:45;99901.84;;;18.18;98.44
58761;BME280;44529;47.464;19.014;2022-09-09T00:13:21;99902.56;;;18.14;100.00
58761;BME280;44529;47.464;19.014;2022-09-09T00:16:27;99889.16;;;18.06;100.00
58761;BME280;44529;47.464;19.014;2022-09-09T00:19:40;99897.66;;;17.97;100.00
58761;BME280;44529;47.464;19.014;2022-09-09T00:22:57;99910.06;;;17.91;100.00
58761;BME280;44529;47.464;19.014;2022-09-09T00:26:09;99912.16;;;17.75;100.00
58761;BME280;44529;47.464;19.014;2022-09-09T00:29:25;99909.50;;;17.78;100.00
58761;BME280;44529;47.464;19.014;2022-09-09T00:32:33;99913.12;;;17.86;100.00
58761;BME280;44529;47.464;19.014;2022-09-09T00:35:40;99913.84;;;17.83;100.00
58761;BME280;44529;47.464;19.014;2022-09-09T00:38:48;99913.94;;;17.90;100.00
58761;BME280;44529;47.464;19.014;2022-09-09T00:45:51;99919.41;;;17.90;100.00
58761;BME280;44529;47.464;19.014;2022-09-09T00:52:32;99914.84;;;17.98;100.00
58761;BME280;44529;47.464;19.014;2022-09-09T00:56:07;99915.97;;;17.97;100.00
58761;BME280;44529;47.464;19.014;2022-09-09T00:59:28;99914.78;;;17.94;100.00
58761;BME280;44529;47.464;19.014;2022-09-09T01:05:46;99917.25;;;17.76;100.00
58761;BME280;44529;47.464;19.014;2022-09-09T01:09:11;99934.41;;;17.73;100.00
58761;BME280;44529;47.464;19.014;2022-09-09T01:12:17;99940.84;;;17.62;100.00
58761;BME280;44529;47.464;19.014;2022-09-09T01:15:26;99939.25;;;17.60;100.00
58761;BME280;44529;47.464;19.014;2022-09-09T01:18:36;99944.47;;;17.69;100.00
58761;BME280;44529;47.464;19.014;2022-09-09T01:21:41;99941.81;;;17.73;100.00
58761;BME280;44529;47.464;19.014;2022-09-09T01:28:27;99944.97;;;17.75;100.00
58761;BME280;44529;47.464;19.014;2022-09-09T01:31:40;99956.88;;;17.63;100.00
58761;BME280;44529;47.464;19.014;2022-09-09T01:34:43;99946.19;;;17.54;100.00
58761;BME280;44529;47.464;19.014;2022-09-09T01:37:45;99950.91;;;17.57;100.00
58761;BME280;44529;47.464;19.014;2022-09-09T01:40:48;99949.22;;;17.49;100.00
58761;BME280;44529;47.464;19.014;2022-09-09T01:43:53;99949.53;;;17.44;100.00
58761;BME280;44529;47.464;19.014;2022-09-09T01:46:57;99947.66;;;17.48;100.00
58761;BME280;44529;47.464;19.014;2022-09-09T01:50:00;99943.62;;;17.42;100.00
58761;BME280;44529;47.464;19.014;2022-09-09T01:53:03;99953.41;;;17.43;100.00
58761;BME280;44529;47.464;19.014;2022-09-09T01:56:21;99960.12;;;17.46;100.00
58761;BME280;44529;47.464;19.014;2022-09-09T02:03:21;99952.63;;;17.43;100.00
58761;BME280;44529;47.464;19.014;2022-09-09T02:06:38;99942.06;;;17.41;100.00
58761;BME280;44529;47.464;19.014;2022-09-09T02:09:45;99922.56;;;17.43;100.00
58761;BME280;44529;47.464;19.014;2022-09-09T02:12:53;99921.34;;;17.40;100.00
58761;BME280;44529;47.464;19.014;2022-09-09T02:19:12;99940.72;;;17.54;100.00
58761;BME280;44529;47.464;19.014;2022-09-09T02:22:17;99939.53;;;17.52;100.00
58761;BME280;44529;47.464;19.014;2022-09-09T02:25:23;99942.94;;;17.45;100.00
58761;BME280;44529;47.464;19.014;2022-09-09T02:28:28;99947.94;;;17.43;100.00
58761;BME280;44529;47.464;19.014;2022-09-09T02:31:32;99936.47;;;17.34;100.00
58761;BME280;44529;47.464;19.014;2022-09-09T02:34:43;99940.50;;;17.40;100.00
58761;BME280;44529;47.464;19.014;2022-09-09T02:37:46;99933.25;;;17.28;100.00
58761;BME280;44529;47.464;19.014;2022-09-09T02:40:48;99944.09;;;17.25;100.00
58761;BME280;44529;47.464;19.014;2022-09-09T02:43:51;99939.37;;;17.22;100.00
58761;BME280;44529;47.464;19.014;2022-09-09T02:50:34;99949.75;;;17.13;100.00
58761;BME280;44529;47.464;19.014;2022-09-09T02:53:56;99952.19;;;17.18;100.00
58761;BME280;44529;47.464;19.014;2022-09-09T03:00:11;99965.59;;;17.03;100.00
58761;BME280;44529;47.464;19.014;2022-09-09T03:03:15;99970.81;;;17.12;100.00
58761;BME280;44529;47.464;19.014;2022-09-09T03:06:18;99965.06;;;17.17;100.00
58761;BME280;44529;47.464;19.014;2022-09-09T03:09:21;99963.97;;;17.22;100.00
58761;BME280;44529;47.464;19.014;2022-09-09T03:12:24;99975.31;;;17.24;100.00
58761;BME280;44529;47.464;19.014;2022-09-09T03:15:26;99969.03;;;17.20;100.00
58761;BME280;44529;47.464;19.014;2022-09-09T03:18:33;99985.63;;;17.11;100.00
58761;BME280;44529;47.464;19.014;2022-09-09T03:21:36;99978.03;;;17.01;100.00
58761;BME280;44529;47.464;19.014;2022-09-09T03:24:38;99990.91;;;17.00;100.00
58761;BME280;44529;47.464;19.014;2022-09-09T03:27:41;99986.88;;;16.94;100.00
58761;BME280;44529;47.464;19.014;2022-09-09T03:30:44;99984.06;;;16.91;100.00
58761;BME280;44529;47.464;19.014;2022-09-09T03:33:46;99986.66;;;16.84;100.00
58761;BME280;44529;47.464;19.014;2022-09-09T03:36:50;99986.25;;;16.82;100.00
58761;BME280;44529;47.464;19.014;2022-09-09T03:39:53;99983.84;;;16.80;100.00
58761;BME280;44529;47.464;19.014;2022-09-09T03:42:56;99987.03;;;16.82;100.00
58761;BME280;44529;47.464;19.014;2022-09-09T03:45:59;99985.28;;;16.74;100.00
58761;BME280;44529;47.464;19.014;2022-09-09T03:49:03;99982.75;;;16.65;100.00
58761;BME280;44529;47.464;19.014;2022-09-09T03:52:06;99987.50;;;16.68;100.00
58761;BME280;44529;47.464;19.014;2022-09-09T03:55:08;99994.41;;;16.62;100.00
58761;BME280;44529;47.464;19.014;2022-09-09T03:58:15;99992.87;;;16.65;100.00
58761;BME280;44529;47.464;19.014;2022-09-09T04:01:18;99996.34;;;16.62;100.00
58761;BME280;44529;47.464;19.014;2022-09-09T04:04:21;99992.72;;;16.58;100.00
58761;BME280;44529;47.464;19.014;2022-09-09T04:07:24;99993.78;;;16.53;100.00
58761;BME280;44529;47.464;19.014;2022-09-09T04:10:26;99994.16;;;16.51;100.00
58761;BME280;44529;47.464;19.014;2022-09-09T04:13:29;99995.31;;;16.50;100.00
58761;BME280;44529;47.464;19.014;2022-09-09T04:16:33;99988.69;;;16.51;100.00
58761;BME280;44529;47.464;19.014;2022-09-09T04:19:37;99992.44;;;16.63;100.00
58761;BME280;44529;47.464;19.014;2022-09-09T04:22:39;99986.69;;;16.68;100.00
58761;BME280;44529;47.464;19.014;2022-09-09T04:25:45;99997.81;;;16.75;100.00
58761;BME280;44529;47.464;19.014;2022-09-09T04:28:49;99997.50;;;16.80;100.00
58761;BME280;44529;47.464;19.014;2022-09-09T04:31:52;99992.91;;;16.84;100.00
58761;BME280;44529;47.464;19.014;2022-09-09T04:34:55;99988.66;;;16.87;100.00
58761;BME280;44529;47.464;19.014;2022-09-09T04:37:58;99992.69;;;16.93;100.00
58761;BME280;44529;47.464;19.014;2022-09-09T04:41:01;99990.97;;;16.85;100.00
58761;BME280;44529;47.464;19.014;2022-09-09T04:44:03;99989.31;;;16.80;100.00
58761;BME280;44529;47.464;19.014;2022-09-09T04:47:06;99984.16;;;16.75;100.00
58761;BME280;44529;47.464;19.014;2022-09-09T04:50:09;99987.59;;;16.72;100.00
58761;BME280;44529;47.464;19.014;2022-09-09T04:53:11;99982.12;;;16.72;100.00
58761;BME280;44529;47.464;19.014;2022-09-09T04:56:15;99986.09;;;16.74;100.00
58761;BME280;44529;47.464;19.014;2022-09-09T04:59:19;99982.62;;;16.77;100.00
58761;BME280;44529;47.464;19.014;2022-09-09T05:02:21;99983.50;;;16.82;100.00
58761;BME280;44529;47.464;19.014;2022-09-09T05:05:25;99993.19;;;16.79;100.00
58761;BME280;44529;47.464;19.014;2022-09-09T05:08:27;100001.38;;;16.79;100.00
58761;BME280;44529;47.464;19.014;2022-09-09T05:11:31;100001.38;;;16.79;100.00
58761;BME280;44529;47.464;19.014;2022-09-09T05:14:34;99999.81;;;16.78;100.00
58761;BME280;44529;47.464;19.014;2022-09-09T05:17:39;99999.91;;;16.82;100.00
58761;BME280;44529;47.464;19.014;2022-09-09T05:20:42;100000.59;;;16.78;100.00
58761;BME280;44529;47.464;19.014;2022-09-09T05:23:45;100001.84;;;16.81;100.00
58761;BME280;44529;47.464;19.014;2022-09-09T05:26:48;100009.81;;;16.90;100.00
58761;BME280;44529;47.464;19.014;2022-09-09T05:29:51;100005.63;;;16.96;100.00
58761;BME280;44529;47.464;19.014;2022-09-09T05:32:56;99999.03;;;16.97;100.00
58761;BME280;44529;47.464;19.014;2022-09-09T05:36:00;100000.22;;;16.99;100.00
58761;BME280;44529;47.464;19.014;2022-09-09T05:39:04;100006.19;;;17.05;100.00
58761;BME280;44529;47.464;19.014;2022-09-09T05:42:06;100015.31;;;17.13;100.00
58761;BME280;44529;47.464;19.014;2022-09-09T05:45:09;100015.81;;;17.18;100.00
58761;BME280;44529;47.464;19.014;2022-09-09T05:48:14;100012.44;;;17.25;100.00
58761;BME280;44529;47.464;19.014;2022-09-09T05:51:24;100019.13;;;17.27;100.00
58761;BME280;44529;47.464;19.014;2022-09-09T05:54:27;100020.84;;;17.36;100.00
58761;BME280;44529;47.464;19.014;2022-09-09T05:57:30;100023.69;;;17.43;100.00
58761;BME280;44529;47.464;19.014;2022-09-09T06:00:32;100020.28;;;17.49;100.00
58761;BME280;44529;47.464;19.014;2022-09-09T06:03:36;100014.59;;;17.58;100.00
58761;BME280;44529;47.464;19.014;2022-09-09T06:06:38;100014.25;;;17.59;100.00
58761;BME280;44529;47.464;19.014;2022-09-09T06:09:43;100017.94;;;17.71;100.00
58761;BME280;44529;47.464;19.014;2022-09-09T06:12:46;100017.72;;;17.79;100.00
58761;BME280;44529;47.464;19.014;2022-09-09T06:15:50;100019.38;;;17.84;97.75
58761;BME280;44529;47.464;19.014;2022-09-09T06:18:54;100017.53;;;17.92;97.69
58761;BME280;44529;47.464;19.014;2022-09-09T06:21:58;100017.88;;;17.90;97.77
58761;BME280;44529;47.464;19.014;2022-09-09T06:25:01;100022.28;;;17.95;98.33
58761;BME280;44529;47.464;19.014;2022-09-09T06:28:04;100020.44;;;18.02;97.24
58761;BME280;44529;47.464;19.014;2022-09-09T06:31:09;100022.94;;;18.11;95.71
58761;BME280;44529;47.464;19.014;2022-09-09T06:34:12;100026.87;;;18.13;92.86
58761;BME280;44529;47.464;19.014;2022-09-09T06:37:15;100021.97;;;18.26;91.86
58761;BME280;44529;47.464;19.014;2022-09-09T06:40:18;100028.03;;;18.39;93.27
58761;BME280;44529;47.464;19.014;2022-09-09T06:43:21;100021.50;;;18.47;94.74
58761;BME280;44529;47.464;19.014;2022-09-09T06:46:26;100014.19;;;18.55;94.56
58761;BME280;44529;47.464;19.014;2022-09-09T06:49:30;100016.16;;;18.58;92.74
58761;BME280;44529;47.464;19.014;2022-09-09T06:52:32;100018.22;;;18.64;92.47
58761;BME280;44529;47.464;19.014;2022-09-09T06:55:35;100020.28;;;18.71;90.74
58761;BME280;44529;47.464;19.014;2022-09-09T06:58:40;100023.87;;;18.75;90.92
58761;BME280;44529;47.464;19.014;2022-09-09T07:01:46;100022.03;;;18.86;91.01
58761;BME280;44529;47.464;19.014;2022-09-09T07:04:53;100025.56;;;18.87;90.41
58761;BME280;44529;47.464;19.014;2022-09-09T07:07:55;100035.69;;;18.83;92.46
58761;BME280;44529;47.464;19.014;2022-09-09T07:11:06;100038.06;;;18.84;91.94
58761;BME280;44529;47.464;19.014;2022-09-09T07:14:14;100037.22;;;18.80;92.79
58761;BME280;44529;47.464;19.014;2022-09-09T07:17:18;100044.25;;;18.78;94.20
58761;BME280;44529;47.464;19.014;2022-09-09T07:20:20;100038.66;;;18.71;95.59
58761;BME280;44529;47.464;19.014;2022-09-09T07:23:23;100041.41;;;18.71;95.75
58761;BME280;44529;47.464;19.014;2022-09-09T07:26:29;100043.84;;;18.76;93.99
58761;BME280;44529;47.464;19.014;2022-09-09T07:29:32;100045.41;;;18.77;94.71
58761;BME280;44529;47.464;19.014;2022-09-09T07:32:34;100040.78;;;18.81;93.42
58761;BME280;44529;47.464;19.014;2022-09-09T07:35:36;100046.66;;;19.13;91.07
58761;BME280;44529;47.464;19.014;2022-09-09T07:38:40;100050.81;;;19.74;90.84
58761;BME280;44529;47.464;19.014;2022-09-09T07:41:47;100055.91;;;20.20;84.98
58761;BME280;44529;47.464;19.014;2022-09-09T07:44:50;100060.56;;;20.67;83.68
58761;BME280;44529;47.464;19.014;2022-09-09T07:47:57;100059.56;;;21.04;80.26
58761;BME280;44529;47.464;19.014;2022-09-09T07:51:12;100059.31;;;21.34;77.67
58761;BME280;44529;47.464;19.014;2022-09-09T07:54:18;100064.53;;;21.96;74.46
58761;BME280;44529;47.464;19.014;2022-09-09T07:57:25;100057.03;;;22.39;74.81
58761;BME280;44529;47.464;19.014;2022-09-09T08:00:28;100056.88;;;23.07;72.00
58761;BME280;44529;47.464;19.014;2022-09-09T08:03:31;100053.91;;;23.46;68.19
58761;BME280;44529;47.464;19.014;2022-09-09T08:06:40;100053.72;;;23.78;65.86
58761;BME280;44529;47.464;19.014;2022-09-09T08:09:43;100047.09;;;24.14;64.89
58761;BME280;44529;47.464;19.014;2022-09-09T08:12:46;100046.97;;;24.28;63.13
58761;BME280;44529;47.464;19.014;2022-09-09T08:16:29;100045.78;;;24.70;62.50
58761;BME280;44529;47.464;19.014;2022-09-09T08:19:32;100043.03;;;25.04;60.43
58761;BME280;44529;47.464;19.014;2022-09-09T08:22:38;100054.88;;;25.35;57.15
58761;BME280;44529;47.464;19.014;2022-09-09T08:25:40;100048.44;;;25.73;54.98
58761;BME280;44529;47.464;19.014;2022-09-09T08:28:43;100054.69;;;26.00;55.66
58761;BME280;44529;47.464;19.014;2022-09-09T08:31:51;100051.81;;;26.54;54.56
58761;BME280;44529;47.464;19.014;2022-09-09T08:34:54;100044.63;;;26.77;51.99
58761;BME280;44529;47.464;19.014;2022-09-09T08:38:03;100037.84;;;27.17;49.74
58761;BME280;44529;47.464;19.014;2022-09-09T08:48:10;100039.81;;;27.37;49.10
58761;BME280;44529;47.464;19.014;2022-09-09T08:51:15;100042.91;;;27.75;47.46
58761;BME280;44529;47.464;19.014;2022-09-09T08:54:20;100053.44;;;27.84;47.32
58761;BME280;44529;47.464;19.014;2022-09-09T08:57:44;100049.28;;;28.08;47.11
58761;BME280;44529;47.464;19.014;2022-09-09T09:04:48;100043.84;;;28.33;47.01
58761;BME280;44529;47.464;19.014;2022-09-09T09:08:27;100047.00;;;28.36;47.48
58761;BME280;44529;47.464;19.014;2022-09-09T09:11:38;100045.44;;;28.35;45.06
58761;BME280;44529;47.464;19.014;2022-09-09T09:14:43;100044.37;;;28.12;45.54
58761;BME280;44529;47.464;19.014;2022-09-09T09:17:46;100048.53;;;28.20;45.08
58761;BME280;44529;47.464;19.014;2022-09-09T09:21:14;100051.31;;;28.20;45.69
58761;BME280;44529;47.464;19.014;2022-09-09T09:28:03;100030.50;;;27.96;45.85
58761;BME280;44529;47.464;19.014;2022-09-09T09:31:15;100020.00;;;28.03;42.98
58761;BME280;44529;47.464;19.014;2022-09-09T09:34:18;100014.88;;;27.86;43.39
58761;BME280;44529;47.464;19.014;2022-09-09T09:37:26;100012.81;;;27.90;45.21
58761;BME280;44529;47.464;19.014;2022-09-09T09:40:31;100012.69;;;28.10;44.88
58761;BME280;44529;47.464;19.014;2022-09-09T09:43:37;100011.91;;;28.09;45.75
58761;BME280;44529;47.464;19.014;2022-09-09T09:46:43;100010.09;;;27.86;45.31
58761;BME280;44529;47.464;19.014;2022-09-09T09:49:56;100016.19;;;27.97;45.63
58761;BME280;44529;47.464;19.014;2022-09-09T09:53:03;100019.91;;;27.74;44.04
58761;BME280;44529;47.464;19.014;2022-09-09T09:56:09;100019.84;;;27.78;44.28
58761;BME280;44529;47.464;19.014;2022-09-09T09:59:33;100020.44;;;27.86;43.61
58761;BME280;44529;47.464;19.014;2022-09-09T10:02:42;100022.56;;;27.62;44.88
58761;BME280;44529;47.464;19.014;2022-09-09T10:05:46;100022.84;;;27.67;42.90
58761;BME280;44529;47.464;19.014;2022-09-09T10:08:50;100022.69;;;27.74;43.04
58761;BME280;44529;47.464;19.014;2022-09-09T10:12:21;100013.69;;;27.70;44.29
58761;BME280;44529;47.464;19.014;2022-09-09T10:19:07;100011.81;;;27.47;36.26
58761;BME280;44529;47.464;19.014;2022-09-09T10:25:38;100015.62;;;27.37;36.49
58761;BME280;44529;47.464;19.014;2022-09-09T10:29:02;100012.56;;;27.32;37.55
58761;BME280;44529;47.464;19.014;2022-09-09T10:35:49;100007.34;;;27.34;38.42
58761;BME280;44529;47.464;19.014;2022-09-09T10:39:04;100016.03;;;27.36;39.64
58761;BME280;44529;47.464;19.014;2022-09-09T10:42:09;100010.94;;;27.50;39.50
58761;BME280;44529;47.464;19.014;2022-09-09T10:45:18;100003.47;;;27.47;38.56
58761;BME280;44529;47.464;19.014;2022-09-09T10:55:20;99999.53;;;27.29;37.61
58761;BME280;44529;47.464;19.014;2022-09-09T10:58:41;100008.81;;;27.02;36.67
58761;BME280;44529;47.464;19.014;2022-09-09T11:04:57;100000.91;;;27.20;35.25
58761;BME280;44529;47.464;19.014;2022-09-09T11:08:10;100003.25;;;27.22;36.07
58761;BME280;44529;47.464;19.014;2022-09-09T11:11:43;99997.44;;;26.96;37.56
58761;BME280;44529;47.464;19.014;2022-09-09T11:14:47;99998.72;;;26.92;36.78
58761;BME280;44529;47.464;19.014;2022-09-09T11:17:58;99996.31;;;27.14;37.70
58761;BME280;44529;47.464;19.014;2022-09-09T11:21:08;99984.53;;;27.26;35.38
58761;BME280;44529;47.464;19.014;2022-09-09T11:24:22;99979.75;;;27.26;37.08
58761;BME280;44529;47.464;19.014;2022-09-09T11:27:38;99986.00;;;27.31;35.72
58761;BME280;44529;47.464;19.014;2022-09-09T11:34:13;99990.88;;;27.26;32.63
58761;BME280;44529;47.464;19.014;2022-09-09T11:40:54;99998.75;;;27.28;36.89
58761;BME280;44529;47.464;19.014;2022-09-09T11:43:57;99991.38;;;27.02;36.35
58761;BME280;44529;47.464;19.014;2022-09-09T11:47:00;99988.22;;;26.83;38.47
58761;BME280;44529;47.464;19.014;2022-09-09T11:53:19;99981.38;;;26.88;38.24
58761;BME280;44529;47.464;19.014;2022-09-09T11:56:34;99977.22;;;26.96;38.60
58761;BME280;44529;47.464;19.014;2022-09-09T11:59:50;99978.16;;;27.09;40.75
58761;BME280;44529;47.464;19.014;2022-09-09T12:02:54;99973.31;;;27.30;39.77
58761;BME280;44529;47.464;19.014;2022-09-09T12:05:57;99971.75;;;27.12;39.98
58761;BME280;44529;47.464;19.014;2022-09-09T12:09:08;99964.63;;;26.91;40.26
58761;BME280;44529;47.464;19.014;2022-09-09T12:18:39;99994.31;;;26.35;41.32
58761;BME280;44529;47.464;19.014;2022-09-09T12:28:11;99991.16;;;26.33;43.02
58761;BME280;44529;47.464;19.014;2022-09-09T12:31:42;99975.00;;;26.51;42.58
58761;BME280;44529;47.464;19.014;2022-09-09T12:34:53;99966.75;;;26.67;42.63
58761;BME280;44529;47.464;19.014;2022-09-09T12:38:02;99957.91;;;26.72;43.34
58761;BME280;44529;47.464;19.014;2022-09-09T12:41:23;99957.69;;;26.83;42.70
58761;BME280;44529;47.464;19.014;2022-09-09T12:44:26;99962.41;;;26.86;41.59
58761;BME280;44529;47.464;19.014;2022-09-09T12:47:49;99954.94;;;26.63;40.90
58761;BME280;44529;47.464;19.014;2022-09-09T12:50:53;99947.63;;;26.53;41.03
58761;BME280;44529;47.464;19.014;2022-09-09T12:53:58;99943.13;;;26.59;41.14
58761;BME280;44529;47.464;19.014;2022-09-09T12:57:02;99942.66;;;26.44;41.27
58761;BME280;44529;47.464;19.014;2022-09-09T13:03:17;99947.63;;;26.73;41.28
58761;BME280;44529;47.464;19.014;2022-09-09T13:06:30;99925.16;;;26.48;41.03
58761;BME280;44529;47.464;19.014;2022-09-09T13:09:32;99922.03;;;26.45;41.95
58761;BME280;44529;47.464;19.014;2022-09-09T13:12:35;99915.53;;;26.52;42.37
58761;BME280;44529;47.464;19.014;2022-09-09T13:15:37;99917.09;;;26.53;40.18
58761;BME280;44529;47.464;19.014;2022-09-09T13:18:40;99916.56;;;26.42;41.77
58761;BME280;44529;47.464;19.014;2022-09-09T13:21:44;99917.19;;;26.30;40.97
58761;BME280;44529;47.464;19.014;2022-09-09T13:24:46;99910.13;;;26.25;38.88
58761;BME280;44529;47.464;19.014;2022-09-09T13:28:00;99911.41;;;26.20;41.05
58761;BME280;44529;47.464;19.014;2022-09-09T13:31:06;99906.00;;;26.13;40.03
58761;BME280;44529;47.464;19.014;2022-09-09T13:34:32;99913.81;;;26.18;40.96
58761;BME280;44529;47.464;19.014;2022-09-09T13:37:37;99907.31;;;26.29;40.15
58761;BME280;44529;47.464;19.014;2022-09-09T13:40:40;99899.97;;;26.18;39.29
58761;BME280;44529;47.464;19.014;2022-09-09T13:43:44;99910.84;;;26.09;38.09
58761;BME280;44529;47.464;19.014;2022-09-09T13:46:47;99899.81;;;26.06;38.98
58761;BME280;44529;47.464;19.014;2022-09-09T13:49:49;99897.69;;;25.93;40.13
58761;BME280;44529;47.464;19.014;2022-09-09T13:52:53;99892.56;;;25.92;40.84
58761;BME280;44529;47.464;19.014;2022-09-09T13:55:57;99890.28;;;26.07;40.28
58761;BME280;44529;47.464;19.014;2022-09-09T13:59:00;99887.81;;;26.12;39.61
58761;BME280;44529;47.464;19.014;2022-09-09T14:02:02;99878.13;;;26.20;40.25
58761;BME280;44529;47.464;19.014;2022-09-09T14:05:04;99871.94;;;26.33;41.68
58761;BME280;44529;47.464;19.014;2022-09-09T14:08:15;99866.69;;;26.38;39.84
58761;BME280;44529;47.464;19.014;2022-09-09T14:11:18;99863.09;;;26.22;40.54
58761;BME280;44529;47.464;19.014;2022-09-09T14:14:21;99867.16;;;25.97;39.48
58761;BME280;44529;47.464;19.014;2022-09-09T14:17:23;99852.06;;;25.78;39.13
58761;BME280;44529;47.464;19.014;2022-09-09T14:20:26;99848.19;;;25.72;38.95
58761;BME280;44529;47.464;19.014;2022-09-09T14:23:29;99851.38;;;25.71;40.96
58761;BME280;44529;47.464;19.014;2022-09-09T14:26:31;99863.31;;;25.67;41.85
58761;BME280;44529;47.464;19.014;2022-09-09T14:29:34;99855.78;;;25.68;41.33
58761;BME280;44529;47.464;19.014;2022-09-09T14:32:36;99856.63;;;25.65;41.67
58761;BME280;44529;47.464;19.014;2022-09-09T14:35:39;99858.63;;;25.64;39.29
58761;BME280;44529;47.464;19.014;2022-09-09T14:38:42;99852.72;;;25.62;39.96
58761;BME280;44529;47.464;19.014;2022-09-09T14:41:45;99848.13;;;25.76;39.64
58761;BME280;44529;47.464;19.014;2022-09-09T14:44:47;99847.34;;;25.75;39.91
58761;BME280;44529;47.464;19.014;2022-09-09T14:47:50;99843.47;;;25.73;41.67
58761;BME280;44529;47.464;19.014;2022-09-09T14:50:53;99842.16;;;25.57;42.21
58761;BME280;44529;47.464;19.014;2022-09-09T14:53:58;99850.28;;;25.45;41.17
58761;BME280;44529;47.464;19.014;2022-09-09T14:57:00;99842.19;;;25.54;41.63
58761;BME280;44529;47.464;19.014;2022-09-09T15:00:03;99856.50;;;25.49;42.90
58761;BME280;44529;47.464;19.014;2022-09-09T15:03:06;99848.69;;;25.44;41.72
58761;BME280;44529;47.464;19.014;2022-09-09T15:06:10;99854.66;;;25.42;41.43
58761;BME280;44529;47.464;19.014;2022-09-09T15:09:14;99851.09;;;25.42;43.15
58761;BME280;44529;47.464;19.014;2022-09-09T15:12:16;99860.31;;;25.35;42.42
58761;BME280;44529;47.464;19.014;2022-09-09T15:15:20;99859.53;;;25.34;41.17
58761;BME280;44529;47.464;19.014;2022-09-09T15:18:23;99854.91;;;25.28;41.59
58761;BME280;44529;47.464;19.014;2022-09-09T15:21:28;99849.72;;;25.30;40.97
58761;BME280;44529;47.464;19.014;2022-09-09T15:24:34;99852.44;;;25.33;41.45
58761;BME280;44529;47.464;19.014;2022-09-09T15:27:37;99851.09;;;25.42;41.28
58761;BME280;44529;47.464;19.014;2022-09-09T15:30:41;99848.84;;;25.56;42.18
58761;BME280;44529;47.464;19.014;2022-09-09T15:33:51;99855.00;;;25.67;41.47
58761;BME280;44529;47.464;19.014;2022-09-09T15:36:53;99839.47;;;25.74;42.67
58761;BME280;44529;47.464;19.014;2022-09-09T15:39:57;99844.59;;;25.75;40.46
58761;BME280;44529;47.464;19.014;2022-09-09T15:43:00;99837.16;;;25.69;40.21
58761;BME280;44529;47.464;19.014;2022-09-09T15:46:31;99851.56;;;25.60;40.67
58761;BME280;44529;47.464;19.014;2022-09-09T15:49:34;99852.25;;;25.44;41.34
58761;BME280;44529;47.464;19.014;2022-09-09T15:52:36;99848.81;;;25.36;42.09
58761;BME280;44529;47.464;19.014;2022-09-09T15:55:38;99853.69;;;25.29;42.30
58761;BME280;44529;47.464;19.014;2022-09-09T15:58:41;99843.59;;;25.19;42.37
58761;BME280;44529;47.464;19.014;2022-09-09T16:01:45;99839.38;;;25.10;44.18
58761;BME280;44529;47.464;19.014;2022-09-09T16:04:48;99845.41;;;25.02;42.18
58761;BME280;44529;47.464;19.014;2022-09-09T16:07:51;99843.19;;;24.93;42.03
58761;BME280;44529;47.464;19.014;2022-09-09T16:10:54;99865.38;;;24.90;42.30
58761;BME280;44529;47.464;19.014;2022-09-09T16:13:57;99867.00;;;24.87;41.88
58761;BME280;44529;47.464;19.014;2022-09-09T16:16:59;99873.72;;;24.86;42.57
58761;BME280;44529;47.464;19.014;2022-09-09T16:20:02;99871.78;;;24.83;42.58
58761;BME280;44529;47.464;19.014;2022-09-09T16:23:04;99875.00;;;24.78;42.62
58761;BME280;44529;47.464;19.014;2022-09-09T16:26:09;99867.19;;;24.73;44.54
58761;BME280;44529;47.464;19.014;2022-09-09T16:29:14;99870.00;;;24.69;41.90
58761;BME280;44529;47.464;19.014;2022-09-09T16:32:16;99860.97;;;24.65;42.55
58761;BME280;44529;47.464;19.014;2022-09-09T16:35:18;99867.78;;;24.61;45.86
58761;BME280;44529;47.464;19.014;2022-09-09T16:38:21;99868.31;;;24.48;43.94
58761;BME280;44529;47.464;19.014;2022-09-09T16:41:26;99870.75;;;24.43;45.92
58761;BME280;44529;47.464;19.014;2022-09-09T16:44:29;99864.84;;;24.41;45.36
58761;BME280;44529;47.464;19.014;2022-09-09T16:47:32;99861.78;;;24.35;44.73
58761;BME280;44529;47.464;19.014;2022-09-09T16:50:34;99862.22;;;24.30;44.00
58761;BME280;44529;47.464;19.014;2022-09-09T16:53:36;99861.91;;;24.21;43.57
58761;BME280;44529;47.464;19.014;2022-09-09T16:56:40;99862.09;;;24.07;43.88
58761;BME280;44529;47.464;19.014;2022-09-09T16:59:43;99865.78;;;23.96;44.44
58761;BME280;44529;47.464;19.014;2022-09-09T17:02:45;99871.75;;;23.88;44.73
58761;BME280;44529;47.464;19.014;2022-09-09T17:05:48;99870.31;;;23.76;45.37
58761;BME280;44529;47.464;19.014;2022-09-09T17:08:58;99876.69;;;23.69;47.04
58761;BME280;44529;47.464;19.014;2022-09-09T17:12:01;99869.66;;;23.61;46.99
58761;BME280;44529;47.464;19.014;2022-09-09T17:15:04;99875.72;;;23.45;48.10
58761;BME280;44529;47.464;19.014;2022-09-09T17:18:10;99876.22;;;23.30;48.95
58761;BME280;44529;47.464;19.014;2022-09-09T17:21:15;99875.50;;;23.18;48.50
58761;BME280;44529;47.464;19.014;2022-09-09T17:24:19;99881.06;;;23.15;48.92
58761;BME280;44529;47.464;19.014;2022-09-09T17:27:21;99880.00;;;23.02;48.17
58761;BME280;44529;47.464;19.014;2022-09-09T17:30:23;99875.72;;;22.93;48.03
58761;BME280;44529;47.464;19.014;2022-09-09T17:33:25;99879.28;;;22.83;48.15
58761;BME280;44529;47.464;19.014;2022-09-09T17:36:32;99875.75;;;22.79;48.17
58761;BME280;44529;47.464;19.014;2022-09-09T17:39:35;99872.31;;;22.68;49.28